createdAt,value
2024-01-12T00:01:13.497Z,3.58
2024-01-12T00:03:40.401Z,3.63
2024-01-12T00:06:07.890Z,3.40
2024-01-12T00:08:34.949Z,3.42
2024-01-12T00:11:01.836Z,3.03
2024-01-12T00:13:28.577Z,3.25
2024-01-12T00:15:55.788Z,3.13
2024-01-12T00:18:22.827Z,3.33
2024-01-12T00:20:50.117Z,2.92
2024-01-12T00:23:17.178Z,3.88
2024-01-12T00:25:44.152Z,3.38
2024-01-12T00:28:13.779Z,2.78
2024-01-12T00:33:09.553Z,2.70
2024-01-12T00:35:36.492Z,3.42
2024-01-12T00:38:03.317Z,3.95
2024-01-12T00:40:30.261Z,3.70
2024-01-12T00:42:56.967Z,3.92
2024-01-12T00:45:23.710Z,3.53
2024-01-12T00:47:50.667Z,4.15
2024-01-12T00:50:17.794Z,3.50
2024-01-12T00:52:45.308Z,3.75
2024-01-12T00:55:13.187Z,3.47
2024-01-12T00:57:39.894Z,4.65
2024-01-12T01:00:07.663Z,3.63
2024-01-12T01:02:34.439Z,4.38
2024-01-12T01:05:01.267Z,3.92
2024-01-12T01:07:29.494Z,4.18
2024-01-12T01:09:56.479Z,4.65
2024-01-12T01:12:23.389Z,3.58
2024-01-12T01:14:50.233Z,3.40
2024-01-12T01:17:17.097Z,3.53
2024-01-12T01:19:43.971Z,3.60
2024-01-12T01:22:10.767Z,3.20
2024-01-12T01:24:37.485Z,3.05
2024-01-12T01:27:04.366Z,3.05
2024-01-12T01:29:32.454Z,3.10
2024-01-12T01:31:59.238Z,3.92
2024-01-12T01:34:26.039Z,2.70
2024-01-12T01:36:52.855Z,2.88
2024-01-12T01:39:19.637Z,3.03
2024-01-12T01:41:46.397Z,3.38
2024-01-12T01:44:13.614Z,2.67
2024-01-12T01:46:40.389Z,2.13
2024-01-12T01:49:07.184Z,2.30
2024-01-12T01:51:34.290Z,2.00
2024-01-12T01:54:01.220Z,2.53
2024-01-12T01:56:28.274Z,1.92
2024-01-12T01:58:55.224Z,2.15
2024-01-12T02:01:23.281Z,2.28
2024-01-12T02:03:50.377Z,2.55
2024-01-12T02:06:17.923Z,2.58
2024-01-12T02:08:45.755Z,2.22
2024-01-12T02:11:12.538Z,2.70
2024-01-12T02:13:39.357Z,2.83
2024-01-12T02:16:09.512Z,2.70
2024-01-12T02:18:36.785Z,2.23
2024-01-12T02:21:03.876Z,2.63
2024-01-12T02:23:30.725Z,2.60
2024-01-12T02:25:57.787Z,2.83
2024-01-12T02:28:24.672Z,3.15
2024-01-12T02:30:52.246Z,3.58
2024-01-12T02:33:19.196Z,3.50
2024-01-12T02:35:46.039Z,2.97
2024-01-12T02:38:12.997Z,3.80
2024-01-12T02:40:39.708Z,3.30
2024-01-12T02:43:07.199Z,2.92
2024-01-12T02:45:34.690Z,3.90
2024-01-12T02:48:01.516Z,2.90
2024-01-12T02:50:28.413Z,3.58
2024-01-12T02:52:55.156Z,3.08
2024-01-12T02:55:21.867Z,3.53
2024-01-12T02:57:48.660Z,3.47
2024-01-12T03:00:15.762Z,3.30
2024-01-12T03:02:42.552Z,3.33
2024-01-12T03:05:09.666Z,3.20
2024-01-12T03:07:38.860Z,3.25
2024-01-12T03:10:06.314Z,3.50
2024-01-12T03:12:32.992Z,3.08
2024-01-12T03:15:00.127Z,3.08
2024-01-12T03:17:27.189Z,3.47
2024-01-12T03:19:54.138Z,3.10
2024-01-12T03:22:20.836Z,3.35
2024-01-12T03:24:47.553Z,3.03
2024-01-12T03:27:14.307Z,3.42
2024-01-12T03:29:41.014Z,3.20
2024-01-12T03:32:07.821Z,2.90
2024-01-12T03:34:34.761Z,3.60
2024-01-12T03:37:01.588Z,2.88
2024-01-12T03:39:28.268Z,2.67
2024-01-12T03:41:55.318Z,2.88
2024-01-12T03:44:22.098Z,2.42
2024-01-12T03:46:48.998Z,2.85
2024-01-12T03:49:15.837Z,2.75
2024-01-12T03:51:45.861Z,2.60
2024-01-12T03:54:12.820Z,3.50
2024-01-12T03:56:39.577Z,2.90
2024-01-12T03:59:06.283Z,2.83
2024-01-12T04:01:32.985Z,3.22
2024-01-12T04:04:00.487Z,2.63
2024-01-12T04:06:27.428Z,2.63
2024-01-12T04:08:54.251Z,3.28
2024-01-12T04:11:23.378Z,3.30
2024-01-12T04:13:50.415Z,2.50
2024-01-12T04:16:17.240Z,2.58
2024-01-12T04:18:44.222Z,2.70
2024-01-12T04:21:11.220Z,2.38
2024-01-12T04:23:40.495Z,2.80
2024-01-12T04:26:08.132Z,2.50
2024-01-12T04:28:35.090Z,2.60
2024-01-12T04:31:05.347Z,2.72
2024-01-12T04:33:33.261Z,3.33
2024-01-12T04:36:01.085Z,2.45
2024-01-12T04:38:28.329Z,2.45
2024-01-12T04:40:55.604Z,2.90
2024-01-12T04:43:22.461Z,3.03
2024-01-12T04:45:49.141Z,3.28
2024-01-12T04:48:16.061Z,3.20
2024-01-12T04:50:42.917Z,3.17
2024-01-12T04:53:09.712Z,3.72
2024-01-12T04:55:36.405Z,3.42
2024-01-12T04:58:04.376Z,3.20
2024-01-12T05:00:31.460Z,3.42
2024-01-12T05:02:58.488Z,3.22
2024-01-12T05:05:25.304Z,2.78
2024-01-12T05:07:52.238Z,3.00
2024-01-12T05:10:18.956Z,2.67
2024-01-12T05:12:45.872Z,2.63
2024-01-12T05:15:12.774Z,3.20
2024-01-12T05:17:39.688Z,2.80
2024-01-12T05:20:08.540Z,2.88
2024-01-12T05:22:37.131Z,2.20
2024-01-12T05:25:07.060Z,2.42
2024-01-12T05:27:33.901Z,2.40
2024-01-12T05:30:03.730Z,2.00
2024-01-12T05:32:31.702Z,1.70
2024-01-12T05:34:58.844Z,1.88
2024-01-12T05:37:25.647Z,1.90
2024-01-12T05:39:52.672Z,1.60
2024-01-12T05:42:19.427Z,2.30
2024-01-12T05:44:46.163Z,1.73
2024-01-12T05:47:12.959Z,1.77
2024-01-12T05:49:39.813Z,3.28
2024-01-12T05:52:07.069Z,3.22
2024-01-12T05:54:33.819Z,2.90
2024-01-12T05:57:00.890Z,2.30
2024-01-12T05:59:27.760Z,2.13
2024-01-12T06:01:55.551Z,1.80
2024-01-12T06:04:22.540Z,1.30
2024-01-12T06:06:49.983Z,1.27
2024-01-12T06:09:16.878Z,1.15
2024-01-12T06:11:44.359Z,1.40
2024-01-12T06:14:11.828Z,1.40
2024-01-12T06:16:38.781Z,1.60
2024-01-12T06:19:05.800Z,1.52
2024-01-12T06:21:32.684Z,1.35
2024-01-12T06:23:59.517Z,1.50
2024-01-12T06:26:26.516Z,1.63
2024-01-12T06:28:53.516Z,1.45
2024-01-12T06:31:20.459Z,1.50
2024-01-12T06:33:47.302Z,1.10
2024-01-12T06:36:14.157Z,1.63
2024-01-12T06:38:41.048Z,1.75
2024-01-12T06:41:07.942Z,1.80
2024-01-12T06:43:34.801Z,2.00
2024-01-12T06:46:04.396Z,1.58
2024-01-12T06:48:31.193Z,1.60
2024-01-12T06:50:58.214Z,1.67
2024-01-12T06:53:25.012Z,1.73
2024-01-12T06:55:51.761Z,1.73
2024-01-12T06:58:18.628Z,2.15
2024-01-12T07:00:45.570Z,1.70
2024-01-12T07:03:12.617Z,2.00
2024-01-12T07:05:39.564Z,2.25
2024-01-12T07:08:06.543Z,2.28
2024-01-12T07:10:33.267Z,2.30
2024-01-12T07:12:59.969Z,2.10
2024-01-12T07:15:26.885Z,1.85
2024-01-12T07:17:53.922Z,1.60
2024-01-12T07:20:20.934Z,2.10
2024-01-12T07:22:47.825Z,1.65
2024-01-12T07:25:14.619Z,1.42
2024-01-12T07:27:42.876Z,1.58
2024-01-12T07:30:10.722Z,1.75
2024-01-12T07:32:37.982Z,1.67
2024-01-12T07:35:05.239Z,1.40
2024-01-12T07:37:32.052Z,1.38
2024-01-12T07:39:58.839Z,1.80
2024-01-12T07:42:25.562Z,1.60
2024-01-12T07:44:53.234Z,1.75
2024-01-12T07:47:20.100Z,2.50
2024-01-12T07:49:46.864Z,2.72
2024-01-12T07:52:17.914Z,3.00
2024-01-12T07:54:46.208Z,1.40
2024-01-12T07:57:13.014Z,1.90
2024-01-12T07:59:39.763Z,2.42
2024-01-12T08:02:06.734Z,1.90
2024-01-12T08:04:34.683Z,2.53
2024-01-12T08:07:03.216Z,3.13
2024-01-12T08:09:30.039Z,2.60
2024-01-12T08:11:57.130Z,2.28
2024-01-12T08:14:23.844Z,2.30
2024-01-12T08:16:50.938Z,2.58
2024-01-12T08:19:17.735Z,2.40
2024-01-12T08:21:49.606Z,1.90
2024-01-12T08:24:22.208Z,2.30
2024-01-12T08:26:49.233Z,1.88
2024-01-12T08:29:16.159Z,1.58
2024-01-12T08:31:43.510Z,1.17
2024-01-12T08:34:10.707Z,1.35
2024-01-12T08:36:37.630Z,1.40
2024-01-12T08:39:04.801Z,2.20
2024-01-12T08:41:32.125Z,1.30
2024-01-12T08:43:58.924Z,1.30
2024-01-12T08:46:25.648Z,1.30
2024-01-12T08:48:53.965Z,1.17
2024-01-12T08:51:21.039Z,1.23
2024-01-12T08:53:47.923Z,7.85
2024-01-12T08:56:14.759Z,1.45
2024-01-12T08:58:41.628Z,3.22
2024-01-12T09:01:08.427Z,3.63
2024-01-12T09:03:35.415Z,4.30
2024-01-12T09:06:02.419Z,4.15
2024-01-12T09:08:29.473Z,3.63
2024-01-12T09:10:56.289Z,3.50
2024-01-12T09:13:23.223Z,2.95
2024-01-12T09:15:49.932Z,2.92
2024-01-12T09:18:16.957Z,3.38
2024-01-12T09:20:43.888Z,3.08
2024-01-12T09:23:10.800Z,6.65
2024-01-12T09:25:37.558Z,8.52
2024-01-12T09:28:04.553Z,5.70
2024-01-12T09:30:31.392Z,8.50
2024-01-12T09:32:58.255Z,10.35
2024-01-12T09:35:25.320Z,5.95
2024-01-12T09:37:52.107Z,6.18
2024-01-12T09:40:19.337Z,3.80
2024-01-12T09:42:49.680Z,3.10
2024-01-12T09:45:22.492Z,3.45
2024-01-12T09:47:51.224Z,2.85
2024-01-12T09:50:23.377Z,2.85
2024-01-12T09:52:53.857Z,2.28
2024-01-12T09:55:20.775Z,2.60
2024-01-12T09:57:48.109Z,2.70
2024-01-12T10:00:17.857Z,2.33
2024-01-12T10:02:45.192Z,2.58
2024-01-12T10:05:12.065Z,2.30
2024-01-12T10:07:39.295Z,1.88
2024-01-12T10:10:07.502Z,2.20
2024-01-12T10:12:34.229Z,2.25
2024-01-12T10:15:11.369Z,2.10
2024-01-12T10:17:38.519Z,2.10
2024-01-12T10:20:07.576Z,2.88
2024-01-12T10:22:35.062Z,2.55
2024-01-12T10:25:04.247Z,2.25
2024-01-12T10:27:32.036Z,2.13
2024-01-12T10:29:59.484Z,3.10
2024-01-12T10:32:27.157Z,2.92
2024-01-12T10:34:54.845Z,3.28
2024-01-12T10:37:23.762Z,2.30
2024-01-12T10:39:51.608Z,2.67
2024-01-12T10:42:20.300Z,2.35
2024-01-12T10:44:50.198Z,2.28
2024-01-12T10:47:19.073Z,2.78
2024-01-12T10:50:00.788Z,2.83
2024-01-12T10:52:47.658Z,2.53
2024-01-12T10:55:22.173Z,2.40
2024-01-12T10:57:49.148Z,2.47
2024-01-12T11:00:16.531Z,2.30
2024-01-12T11:02:44.166Z,2.15
2024-01-12T11:05:13.239Z,2.30
2024-01-12T11:07:41.468Z,3.25
2024-01-12T11:10:08.700Z,3.30
2024-01-12T11:12:39.881Z,2.83
2024-01-12T11:15:07.703Z,3.53
2024-01-12T11:17:36.632Z,3.83
2024-01-12T11:20:14.532Z,3.72
2024-01-12T11:22:45.101Z,4.20
2024-01-12T11:25:14.245Z,4.35
2024-01-12T11:27:51.755Z,5.03
2024-01-12T11:30:23.051Z,3.92
2024-01-12T11:35:30.933Z,5.05
2024-01-12T11:38:01.747Z,4.60
2024-01-12T11:40:29.744Z,4.60
2024-01-12T11:42:59.226Z,5.38
2024-01-12T11:45:27.020Z,4.70
2024-01-12T11:47:55.279Z,3.97
2024-01-12T11:50:26.108Z,3.92
2024-01-12T11:53:00.102Z,4.30
2024-01-12T11:55:27.135Z,4.20
2024-01-12T11:57:57.303Z,4.00
2024-01-12T12:00:27.299Z,4.47
2024-01-12T12:02:57.296Z,4.40
2024-01-12T12:05:26.679Z,4.15
2024-01-12T12:07:53.767Z,4.63
2024-01-12T12:10:26.800Z,4.38
2024-01-12T12:13:00.106Z,4.80
2024-01-12T12:15:26.950Z,4.57
2024-01-12T12:17:55.682Z,4.05
2024-01-12T12:20:24.245Z,3.65
2024-01-12T12:22:51.377Z,3.58
2024-01-12T12:25:18.391Z,4.18
2024-01-12T12:27:47.686Z,3.50
2024-01-12T12:30:16.860Z,3.92
2024-01-12T12:32:45.546Z,3.97
2024-01-12T12:35:13.298Z,4.55
2024-01-12T12:37:41.070Z,4.20
2024-01-12T12:40:11.055Z,4.28
2024-01-12T12:42:39.501Z,4.68
2024-01-12T12:45:07.323Z,4.55
2024-01-12T12:47:35.260Z,4.47
2024-01-12T12:50:02.228Z,4.20
2024-01-12T12:52:29.209Z,4.20
2024-01-12T12:54:56.020Z,3.83
2024-01-12T12:57:23.123Z,4.00
2024-01-12T12:59:49.939Z,4.00
2024-01-12T13:02:17.030Z,4.15
2024-01-12T13:04:43.770Z,4.40
2024-01-12T13:07:10.933Z,4.57
2024-01-12T13:09:38.087Z,3.97
2024-01-12T13:12:05.858Z,3.75
2024-01-12T13:14:32.833Z,3.97
2024-01-12T13:16:59.755Z,4.18
2024-01-12T13:19:27.254Z,4.50
2024-01-12T13:21:54.674Z,4.18
2024-01-12T13:24:21.810Z,2.95
2024-01-12T13:26:49.259Z,4.68
2024-01-12T13:29:16.287Z,4.15
2024-01-12T13:31:44.043Z,4.18
2024-01-12T13:34:13.422Z,3.60
2024-01-12T13:36:45.460Z,3.50
2024-01-12T13:39:12.822Z,3.83
2024-01-12T13:41:40.563Z,3.65
2024-01-12T13:44:07.476Z,3.30
2024-01-12T13:46:34.203Z,3.63
2024-01-12T13:49:01.244Z,3.05
2024-01-12T13:51:28.128Z,3.45
2024-01-12T13:53:55.036Z,3.60
2024-01-12T13:56:22.393Z,3.08
2024-01-12T13:58:49.117Z,3.20
2024-01-12T14:01:16.637Z,2.90
2024-01-12T14:03:48.436Z,3.05
2024-01-12T14:06:15.718Z,3.42
2024-01-12T14:08:44.412Z,3.00
2024-01-12T14:11:14.455Z,3.05
2024-01-12T14:13:42.025Z,3.28
2024-01-12T14:16:08.812Z,3.20
2024-01-12T14:18:36.114Z,2.50
2024-01-12T14:21:03.025Z,3.10
2024-01-12T14:23:29.888Z,3.10
2024-01-12T14:25:56.704Z,3.33
2024-01-12T14:28:32.017Z,3.45
2024-01-12T14:31:01.273Z,3.63
2024-01-12T14:33:31.029Z,3.35
2024-01-12T14:35:59.517Z,3.25
2024-01-12T14:38:27.071Z,2.92
2024-01-12T14:40:53.819Z,3.05
2024-01-12T14:43:20.574Z,2.83
2024-01-12T14:45:47.812Z,2.97
2024-01-12T14:48:15.174Z,2.97
2024-01-12T14:50:42.458Z,3.22
2024-01-12T14:53:10.953Z,3.65
2024-01-12T14:55:39.243Z,3.25
2024-01-12T14:58:06.013Z,3.70
2024-01-12T15:00:32.969Z,3.88
2024-01-12T15:03:00.682Z,3.38
2024-01-12T15:05:27.771Z,3.42
2024-01-12T15:07:54.791Z,4.93
2024-01-12T15:10:21.911Z,4.20
2024-01-12T15:12:48.765Z,4.22
2024-01-12T15:15:15.707Z,5.18
2024-01-12T15:17:43.016Z,4.70
2024-01-12T15:20:11.289Z,3.85
2024-01-12T15:22:38.350Z,4.55
2024-01-12T15:25:07.597Z,5.13
2024-01-12T15:27:34.894Z,4.05
2024-01-12T15:30:01.948Z,3.90
2024-01-12T15:32:29.046Z,3.78
2024-01-12T15:34:56.079Z,5.13
2024-01-12T15:37:22.877Z,4.10
2024-01-12T15:39:49.635Z,4.10
2024-01-12T15:42:16.474Z,4.18
2024-01-12T15:44:43.266Z,3.95
2024-01-12T15:47:10.053Z,3.30
2024-01-12T15:49:38.067Z,4.80
2024-01-12T15:52:05.257Z,4.03
2024-01-12T15:54:32.269Z,3.95
2024-01-12T15:56:59.144Z,3.83
2024-01-12T15:59:26.114Z,3.97
2024-01-12T16:01:52.942Z,3.50
2024-01-12T16:04:19.799Z,3.28
2024-01-12T16:06:48.074Z,3.42
2024-01-12T16:09:15.383Z,3.22
2024-01-12T16:11:42.346Z,4.18
2024-01-12T16:14:09.238Z,3.83
2024-01-12T16:16:36.154Z,3.75
2024-01-12T16:19:08.660Z,3.78
2024-01-12T16:21:42.453Z,3.63
2024-01-12T16:24:10.220Z,3.75
2024-01-12T16:26:41.485Z,88.82
2024-01-12T16:29:09.172Z,50.40
2024-01-12T16:31:36.398Z,4.70
2024-01-12T16:34:03.659Z,3.13
2024-01-12T16:36:30.671Z,3.20
2024-01-12T16:38:57.551Z,3.72
2024-01-12T16:41:24.677Z,9.48
2024-01-12T16:43:51.754Z,4.35
2024-01-12T16:46:18.616Z,5.45
2024-01-12T16:48:46.679Z,5.70
2024-01-12T16:51:17.357Z,5.65
2024-01-12T16:53:44.338Z,4.55
2024-01-12T16:56:11.313Z,6.15
2024-01-12T16:58:38.846Z,5.55
2024-01-12T17:01:06.073Z,5.78
2024-01-12T17:03:33.113Z,5.97
2024-01-12T17:06:00.418Z,5.13
2024-01-12T17:08:27.693Z,5.82
2024-01-12T17:10:54.600Z,5.43
2024-01-12T17:13:21.604Z,4.10
2024-01-12T17:15:49.036Z,4.72
2024-01-12T17:18:21.966Z,3.42
2024-01-12T17:20:53.414Z,6.63
2024-01-12T17:23:22.236Z,16.02
2024-01-12T17:25:49.300Z,8.05
2024-01-12T17:28:16.660Z,9.02
2024-01-12T17:30:44.777Z,7.88
2024-01-12T17:33:12.318Z,7.15
2024-01-12T17:35:39.294Z,4.72
2024-01-12T17:38:07.338Z,5.80
2024-01-12T17:40:34.350Z,6.55
2024-01-12T17:43:01.215Z,7.25
2024-01-12T17:45:28.580Z,4.57
2024-01-12T17:47:56.949Z,6.22
2024-01-12T17:50:24.109Z,8.93
2024-01-12T17:52:50.992Z,4.13
2024-01-12T17:55:18.026Z,7.25
2024-01-12T17:57:45.037Z,5.40
2024-01-12T18:00:13.630Z,6.60
2024-01-12T18:02:40.767Z,6.18
2024-01-12T18:05:07.971Z,5.82
2024-01-12T18:07:34.927Z,7.05
2024-01-12T18:10:02.065Z,5.80
2024-01-12T18:12:29.041Z,6.22
2024-01-12T18:14:55.993Z,16.25
2024-01-12T18:17:23.524Z,18.13
2024-01-12T18:19:50.526Z,13.70
2024-01-12T18:22:17.434Z,8.60
2024-01-12T18:24:49.384Z,10.82
2024-01-12T18:27:21.374Z,10.65
2024-01-12T18:29:48.823Z,10.63
2024-01-12T18:32:15.863Z,10.32
2024-01-12T18:34:42.945Z,6.05
2024-01-12T18:37:09.812Z,7.65
2024-01-12T18:39:36.806Z,7.03
2024-01-12T18:42:04.931Z,5.70
2024-01-12T18:44:31.867Z,7.10
2024-01-12T18:46:58.810Z,8.77
2024-01-12T18:49:25.610Z,5.80
2024-01-12T18:51:53.015Z,4.03
2024-01-12T18:54:22.585Z,3.85
2024-01-12T18:56:49.527Z,3.13
2024-01-12T18:59:16.613Z,2.90
2024-01-12T19:01:44.123Z,2.70
2024-01-12T19:04:11.956Z,4.97
2024-01-12T19:06:38.923Z,6.40
2024-01-12T19:09:07.455Z,9.63
2024-01-12T19:11:34.617Z,8.48
2024-01-12T19:14:01.551Z,8.13
2024-01-12T19:16:28.386Z,6.88
2024-01-12T19:18:55.277Z,7.35
2024-01-12T19:21:22.233Z,8.13
2024-01-12T19:23:50.727Z,9.80
2024-01-12T19:26:17.672Z,9.82
2024-01-12T19:28:44.842Z,9.30
2024-01-12T19:31:21.165Z,8.18
2024-01-12T19:33:48.402Z,9.93
2024-01-12T19:36:16.044Z,10.30
2024-01-12T19:38:42.996Z,10.50
2024-01-12T19:41:09.858Z,10.15
2024-01-12T19:43:36.771Z,9.77
2024-01-12T19:46:03.975Z,8.15
2024-01-12T19:48:30.970Z,10.57
2024-01-12T19:50:57.952Z,11.63
2024-01-12T19:53:24.730Z,12.98
2024-01-12T19:55:51.529Z,11.55
2024-01-12T19:58:18.453Z,12.88
2024-01-12T20:00:45.305Z,12.13
2024-01-12T20:03:12.810Z,12.00
2024-01-12T20:05:39.770Z,13.82
2024-01-12T20:08:06.795Z,14.93
2024-01-12T20:10:33.766Z,24.17
2024-01-12T20:13:01.814Z,22.27
2024-01-12T20:15:28.608Z,22.40
2024-01-12T20:17:56.838Z,18.23
2024-01-12T20:20:23.767Z,12.75
2024-01-12T20:22:50.570Z,17.58
2024-01-12T20:25:17.592Z,20.80
2024-01-12T20:27:44.433Z,20.33
2024-01-12T20:30:12.686Z,18.65
2024-01-12T20:32:40.099Z,14.65
2024-01-12T20:35:07.424Z,11.95
2024-01-12T20:37:34.285Z,10.80
2024-01-12T20:40:01.153Z,11.20
2024-01-12T20:42:29.198Z,13.20
2024-01-12T20:44:56.175Z,15.48
2024-01-12T20:47:26.229Z,14.32
2024-01-12T20:49:53.159Z,13.68
2024-01-12T20:52:21.583Z,13.00
2024-01-12T20:54:50.796Z,11.63
2024-01-12T20:57:17.695Z,9.98
2024-01-12T20:59:44.574Z,9.10
2024-01-12T21:02:11.522Z,6.80
2024-01-12T21:04:38.484Z,7.97
2024-01-12T21:07:05.513Z,7.70
2024-01-12T21:09:33.089Z,11.60
2024-01-12T21:11:59.973Z,9.93
2024-01-12T21:14:29.505Z,9.30
2024-01-12T21:16:56.966Z,11.55
2024-01-12T21:19:24.421Z,10.25
2024-01-12T21:21:51.400Z,8.18
2024-01-12T21:24:18.307Z,7.97
2024-01-12T21:26:45.557Z,10.18
2024-01-12T21:29:12.935Z,8.90
2024-01-12T21:31:40.150Z,8.70
2024-01-12T21:34:07.049Z,9.05
2024-01-12T21:36:34.603Z,8.05
2024-01-12T21:39:03.750Z,8.07
2024-01-12T21:41:30.956Z,7.45
2024-01-12T21:43:57.831Z,7.75
2024-01-12T21:46:26.524Z,7.35
2024-01-12T21:48:53.586Z,8.05
2024-01-12T21:51:20.590Z,7.30
2024-01-12T21:53:47.569Z,7.15
2024-01-12T21:56:14.771Z,7.90
2024-01-12T21:58:41.595Z,7.82
2024-01-12T22:01:08.435Z,8.57
2024-01-12T22:03:35.468Z,8.30
2024-01-12T22:06:02.545Z,8.30
2024-01-12T22:08:29.491Z,8.82
2024-01-12T22:10:56.415Z,10.15
2024-01-12T22:13:23.301Z,9.30
2024-01-12T22:15:50.219Z,10.68
2024-01-12T22:18:17.354Z,9.73
2024-01-12T22:20:44.356Z,10.82
2024-01-12T22:23:11.937Z,10.60
2024-01-12T22:25:43.784Z,11.35
2024-01-12T22:28:10.776Z,11.02
2024-01-12T22:30:37.700Z,10.00
2024-01-12T22:33:05.037Z,9.93
2024-01-12T22:35:31.951Z,8.95
2024-01-12T22:37:58.886Z,10.85
2024-01-12T22:40:25.635Z,8.90
2024-01-12T22:42:52.509Z,7.95
2024-01-12T22:45:19.467Z,8.43
2024-01-12T22:47:46.407Z,8.85
2024-01-12T22:50:13.541Z,8.35
2024-01-12T22:52:40.969Z,5.78
2024-01-12T22:55:08.719Z,7.68
2024-01-12T22:57:35.630Z,7.55
2024-01-12T23:00:03.002Z,6.95
2024-01-12T23:02:33.160Z,7.35
2024-01-12T23:05:01.365Z,7.32
2024-01-12T23:07:30.002Z,6.82
2024-01-12T23:09:56.878Z,6.60
2024-01-12T23:12:23.727Z,7.68
2024-01-12T23:14:50.526Z,6.25
2024-01-12T23:17:17.379Z,5.90
2024-01-12T23:19:44.696Z,6.10
2024-01-12T23:22:11.563Z,6.60
2024-01-12T23:24:38.409Z,5.10
2024-01-12T23:27:05.449Z,5.43
2024-01-12T23:29:38.103Z,5.25
2024-01-12T23:32:12.793Z,5.78
2024-01-12T23:34:39.856Z,4.95
2024-01-12T23:37:06.684Z,4.88
2024-01-12T23:39:33.593Z,5.50
2024-01-12T23:42:00.924Z,4.22
2024-01-12T23:44:27.723Z,4.60
2024-01-12T23:46:54.606Z,4.13
2024-01-12T23:49:22.066Z,4.43
2024-01-12T23:51:49.037Z,4.15
2024-01-12T23:54:15.993Z,4.18
2024-01-12T23:56:42.945Z,5.07
2024-01-12T23:59:10.099Z,4.57
